Time;durP1;ratioP1;P1;durP2;ratioP2;P2;SDS_P1;SDS_P2;PMS_P1;PMS_P2;Temp;Humidity;BMP_temperature;BMP_pressure;BME280_temperature;BME280_humidity;BME280_pressure;Samples;Min_cycle;Max_cycle;Signal;HPM_P1;HPM_P2
2023/12/20 00:02:19;;;;;;;44.13;27.03;;;;;;;6.16;72.24;94972.56;5072694;28;20190;-45
2023/12/20 00:04:46;;;;;;;41.30;25.87;;;;;;;6.11;72.26;94956.84;5075426;28;20686;-45
2023/12/20 00:07:13;;;;;;;45.43;26.33;;;;;;;6.14;72.14;94958.38;5071652;28;20632;-47
2023/12/20 00:09:40;;;;;;;47.23;28.13;;;;;;;6.14;72.38;94955.84;5071350;28;20638;-45
2023/12/20 00:12:07;;;;;;;42.87;27.73;;;;;;;6.10;72.22;94944.28;5071271;28;20279;-46
2023/12/20 00:14:33;;;;;;;45.80;26.97;;;;;;;6.12;72.35;94948.31;5077439;28;20714;-48
2023/12/20 00:17:02;;;;;;;53.83;30.73;;;;;;;6.13;72.33;94944.88;5091536;28;20239;-48
2023/12/20 00:19:28;;;;;;;44.10;28.43;;;;;;;6.05;72.47;94934.44;5078323;28;20251;-51
2023/12/20 00:21:55;;;;;;;51.03;29.37;;;;;;;6.12;72.38;94942.41;5077502;28;20190;-51
2023/12/20 00:24:22;;;;;;;46.47;28.87;;;;;;;6.12;72.43;94942.41;5089007;28;20672;-51
2023/12/20 00:26:49;;;;;;;52.30;30.17;;;;;;;6.11;72.31;94934.00;5091121;28;20189;-46
2023/12/20 00:29:15;;;;;;;49.60;29.43;;;;;;;6.07;72.57;94924.16;5091579;28;20190;-49
2023/12/20 00:31:42;;;;;;;53.77;31.17;;;;;;;6.10;72.23;94929.03;5091028;28;20193;-48
2023/12/20 00:34:10;;;;;;;50.50;30.70;;;;;;;6.10;72.36;94913.81;5088732;28;20212;-46
2023/12/20 00:36:37;;;;;;;49.07;31.60;;;;;;;5.99;72.43;94900.09;5070963;28;20190;-47
2023/12/20 00:39:04;;;;;;;49.50;30.43;;;;;;;6.08;72.29;94910.53;5070911;28;20194;-51
2023/12/20 00:41:31;;;;;;;49.80;31.40;;;;;;;6.03;72.44;94904.06;5071047;28;20191;-48
2023/12/20 00:43:58;;;;;;;50.03;30.73;;;;;;;5.52;72.17;94824.63;5071711;28;20560;-54
2023/12/20 00:46:24;;;;;;;48.60;30.00;;;;;;;6.03;72.32;94898.16;5082798;28;20193;-44
2023/12/20 00:48:51;;;;;;;54.97;33.40;;;;;;;6.08;72.30;94905.47;5078916;28;20792;-49
2023/12/20 00:51:19;;;;;;;51.93;32.47;;;;;;;6.06;72.54;94904.78;5072962;28;20182;-48
2023/12/20 00:53:49;;;;;;;55.33;33.43;;;;;;;6.03;72.51;94900.69;5090760;28;20346;-47
2023/12/20 00:56:16;;;;;;;50.00;31.27;;;;;;;5.80;72.45;94859.09;5084264;28;20232;-48
2023/12/20 00:58:42;;;;;;;52.83;32.87;;;;;;;6.05;72.45;94895.53;5070725;28;20182;-49
2023/12/20 01:01:08;;;;;;;52.63;31.83;;;;;;;6.04;72.50;94899.78;5070255;28;20198;-47
2023/12/20 01:03:35;;;;;;;56.73;32.17;;;;;;;6.04;72.36;94889.63;5075390;28;20201;-48
2023/12/20 01:06:04;;;;;;;49.07;30.27;;;;;;;6.06;72.44;94884.47;5088771;28;20182;-47
2023/12/20 01:08:34;;;;;;;49.50;32.57;;;;;;;6.04;72.49;94876.94;5089457;28;20201;-46
2023/12/20 01:11:01;;;;;;;53.07;32.73;;;;;;;6.03;72.47;94882.94;5090402;28;20225;-46
2023/12/20 01:13:27;;;;;;;51.17;31.53;;;;;;;6.01;72.68;94875.44;5090121;28;20286;-44
2023/12/20 01:15:55;;;;;;;53.67;33.40;;;;;;;5.99;72.42;94866.28;5090014;28;20189;-46
2023/12/20 01:18:22;;;;;;;53.27;32.40;;;;;;;6.01;72.59;94877.97;5078582;28;20529;-44
2023/12/20 01:20:48;;;;;;;49.20;32.37;;;;;;;6.01;72.47;94874.63;5070016;28;20182;-45
2023/12/20 01:23:15;;;;;;;51.37;30.80;;;;;;;5.99;72.50;94874.72;5049977;28;20256;-44
2023/12/20 01:25:43;;;;;;;59.73;33.03;;;;;;;6.01;72.50;94869.56;5050150;28;20194;-46
2023/12/20 01:28:10;;;;;;;51.27;31.97;;;;;;;5.99;72.59;94867.09;5064385;28;20667;-46
2023/12/20 01:30:37;;;;;;;52.47;30.93;;;;;;;5.95;72.52;94850.47;5089977;28;20680;-47
2023/12/20 01:33:04;;;;;;;45.93;30.37;;;;;;;5.97;72.40;94852.91;5049536;28;20214;-50
2023/12/20 01:35:31;;;;;;;55.23;30.60;;;;;;;5.96;72.52;94853.84;5049857;28;20664;-45
2023/12/20 01:37:57;;;;;;;49.83;31.10;;;;;;;5.97;72.33;94852.91;5055388;28;20190;-46
2023/12/20 01:40:24;;;;;;;56.33;30.87;;;;;;;5.94;72.38;94845.50;5087352;28;20761;-52
2023/12/20 01:43:00;;;;;;;46.47;29.27;;;;;;;5.73;72.38;94807.16;5090156;28;20189;-50
2023/12/20 01:45:27;;;;;;;45.87;30.73;;;;;;;5.93;72.42;94833.72;5089373;28;20744;-45
2023/12/20 01:47:54;;;;;;;50.50;29.70;;;;;;;5.93;72.38;94838.81;5089738;28;20182;-49
2023/12/20 01:50:22;;;;;;;47.00;29.20;;;;;;;5.91;72.31;94828.72;5087718;28;20197;-46
2023/12/20 01:52:51;;;;;;;48.07;29.33;;;;;;;5.92;72.52;94835.47;5084233;28;20190;-50
2023/12/20 01:55:19;;;;;;;45.90;28.97;;;;;;;5.90;72.28;94823.75;5069543;28;20191;-52
2023/12/20 01:57:47;;;;;;;47.97;29.47;;;;;;;5.89;72.38;94822.13;5069496;28;20197;-48
2023/12/20 02:00:16;;;;;;;41.03;27.20;;;;;;;5.89;72.31;94817.88;5070529;28;20682;-47
2023/12/20 02:02:45;;;;;;;49.83;30.40;;;;;;;5.89;72.39;94822.13;5089010;28;20185;-50
2023/12/20 02:05:14;;;;;;;46.70;26.80;;;;;;;5.87;72.31;94821.41;5089774;28;20226;-50
2023/12/20 02:07:40;;;;;;;50.13;28.73;;;;;;;5.86;72.43;94818.06;5089634;28;20259;-47
2023/12/20 02:10:08;;;;;;;44.60;27.13;;;;;;;5.86;72.31;94812.19;5087864;28;20189;-50
2023/12/20 02:12:35;;;;;;;44.37;27.97;;;;;;;5.85;72.32;94806.31;5076680;28;20224;-48
2023/12/20 02:15:02;;;;;;;49.53;27.50;;;;;;;5.81;72.23;94804.91;5069272;28;20232;-48
2023/12/20 02:17:31;;;;;;;45.97;27.20;;;;;;;5.84;72.28;94799.63;5069483;28;20186;-49
2023/12/20 02:19:58;;;;;;;46.33;27.30;;;;;;;5.84;72.27;94801.34;5074499;28;20708;-48
2023/12/20 02:22:26;;;;;;;45.87;27.97;;;;;;;5.83;72.34;94797.16;5087731;28;20566;-45
2023/12/20 02:24:53;;;;;;;49.40;27.07;;;;;;;5.81;72.35;94792.22;5089475;28;20277;-45
2023/12/20 02:27:20;;;;;;;44.40;27.03;;;;;;;5.82;72.32;94798.09;5089548;28;20221;-48
2023/12/20 02:29:48;;;;;;;41.53;25.03;;;;;;;5.74;72.05;94784.22;5089314;28;20220;-48
2023/12/20 02:32:15;;;;;;;41.83;25.00;;;;;;;5.73;72.01;94774.97;5087987;28;20273;-48
2023/12/20 02:34:42;;;;;;;42.23;26.17;;;;;;;5.79;72.23;94786.44;5088093;28;20213;-50
2023/12/20 02:37:09;;;;;;;40.60;25.03;;;;;;;5.78;72.28;94778.00;5089175;28;20190;-47
2023/12/20 02:39:37;;;;;;;35.93;21.73;;;;;;;5.79;72.27;94776.28;5089715;28;20196;-49
2023/12/20 02:42:04;;;;;;;41.80;24.93;;;;;;;5.77;72.21;94771.31;5088713;28;20259;-47
2023/12/20 02:44:31;;;;;;;44.30;23.80;;;;;;;5.74;72.09;94773.25;5078553;28;20182;-44
2023/12/20 02:46:58;;;;;;;34.97;22.53;;;;;;;5.70;72.25;94770.13;5068913;28;20632;-47
2023/12/20 02:49:24;;;;;;;38.57;23.07;;;;;;;5.75;72.14;94770.63;5070717;28;20190;-48
2023/12/20 02:51:51;;;;;;;36.07;21.93;;;;;;;5.74;72.22;94775.78;5088925;28;20201;-49
2023/12/20 02:54:18;;;;;;;34.73;21.17;;;;;;;5.74;72.07;94770.69;5086478;28;20270;-48
2023/12/20 02:56:46;;;;;;;35.57;22.20;;;;;;;5.73;72.17;94771.63;5088656;28;20202;-48
2023/12/20 02:59:13;;;;;;;36.83;20.10;;;;;;;5.72;72.19;94772.56;5072230;28;20194;-51
2023/12/20 03:01:43;;;;;;;29.80;20.50;;;;;;;5.72;72.27;94775.09;5072633;28;20243;-48
2023/12/20 03:04:10;;;;;;;35.33;20.07;;;;;;;5.67;72.13;94767.78;5074092;28;20281;-48
2023/12/20 03:06:36;;;;;;;31.23;19.30;;;;;;;5.61;72.30;94749.63;5087458;28;20251;-50
2023/12/20 03:09:04;;;;;;;34.50;19.43;;;;;;;5.69;72.11;94765.94;5092961;28;20211;-50
2023/12/20 03:11:31;;;;;;;31.07;19.30;;;;;;;5.69;72.05;94767.69;5092347;28;20221;-50
2023/12/20 03:13:59;;;;;;;29.13;18.73;;;;;;;5.68;72.06;94766.88;5072138;28;20230;-46
2023/12/20 03:16:25;;;;;;;33.80;19.40;;;;;;;5.67;72.13;94762.72;5080724;28;20193;-47
2023/12/20 03:18:52;;;;;;;33.43;18.37;;;;;;;5.67;72.07;94762.72;5092519;28;20190;-51
2023/12/20 03:21:19;;;;;;;29.97;18.23;;;;;;;5.66;72.07;94761.09;5074828;28;20198;-50
2023/12/20 03:23:46;;;;;;;31.70;18.57;;;;;;;5.66;71.96;94755.22;5072101;28;20205;-50
2023/12/20 03:26:13;;;;;;;30.03;19.03;;;;;;;5.66;72.15;94757.75;5073678;28;20193;-51
2023/12/20 03:28:40;;;;;;;31.50;19.23;;;;;;;5.63;72.06;94753.69;5091549;28;20182;-51
2023/12/20 03:31:08;;;;;;;32.37;19.40;;;;;;;5.63;72.06;94753.69;5092346;28;20686;-48
2023/12/20 03:33:34;;;;;;;32.87;19.20;;;;;;;5.62;72.21;94743.66;5092302;28;20205;-51
2023/12/20 03:36:01;;;;;;;36.53;19.57;;;;;;;5.61;71.99;94749.63;5091015;28;20564;-55
2023/12/20 03:38:28;;;;;;;28.47;18.87;;;;;;;5.60;72.07;94742.94;5080396;28;20205;-49
2023/12/20 03:40:55;;;;;;;34.77;20.97;;;;;;;5.59;72.12;94741.34;5072211;28;20251;-51
2023/12/20 03:43:21;;;;;;;31.20;20.50;;;;;;;5.38;71.99;94703.06;5072135;28;20194;-49
2023/12/20 03:45:48;;;;;;;34.60;20.30;;;;;;;5.58;72.09;94744.81;5071802;28;20201;-51
2023/12/20 03:48:16;;;;;;;34.00;21.00;;;;;;;5.57;72.03;94743.16;5076621;28;20173;-51
2023/12/20 03:50:43;;;;;;;34.90;21.43;;;;;;;5.57;71.98;94745.69;5084918;28;20193;-49
2023/12/20 03:53:10;;;;;;;35.90;21.57;;;;;;;5.55;72.28;94745.81;5071780;28;20201;-50
2023/12/20 03:55:36;;;;;;;35.13;21.03;;;;;;;5.54;72.05;94739.13;5071910;28;20214;-50
2023/12/20 03:58:03;;;;;;;34.90;22.23;;;;;;;5.54;72.09;94739.13;5073226;28;20190;-49
2023/12/20 04:00:30;;;;;;;34.40;22.07;;;;;;;5.53;72.13;94735.78;5075854;28;20198;-50
2023/12/20 04:02:57;;;;;;;35.67;21.67;;;;;;;5.49;71.67;94721.69;5077446;28;20191;-48
2023/12/20 04:05:25;;;;;;;39.83;24.07;;;;;;;5.49;71.87;94719.16;5076229;28;20194;-49
2023/12/20 04:07:52;;;;;;;37.23;22.93;;;;;;;5.48;72.05;94724.31;5091531;28;20262;-51
2023/12/20 04:10:18;;;;;;;37.27;22.03;;;;;;;5.50;72.03;94719.97;5077844;28;20190;-47
2023/12/20 04:12:45;;;;;;;38.97;23.33;;;;;;;5.49;71.99;94716.63;5071846;28;20194;-48
2023/12/20 04:15:12;;;;;;;40.93;22.93;;;;;;;5.44;71.86;94711.06;5077118;28;20675;-47
2023/12/20 04:17:39;;;;;;;40.40;24.47;;;;;;;5.46;72.01;94706.69;5091370;28;20251;-54
2023/12/20 04:20:07;;;;;;;36.20;23.37;;;;;;;5.46;72.00;94716.81;5091283;28;20189;-51
2023/12/20 04:22:35;;;;;;;41.17;22.60;;;;;;;5.46;71.90;94709.22;5091319;28;20185;-48
2023/12/20 04:25:02;;;;;;;38.83;24.73;;;;;;;5.44;71.96;94703.44;5091523;28;20654;-47
2023/12/20 04:27:28;;;;;;;40.73;25.97;;;;;;;5.40;71.90;94704.56;5091345;28;20724;-51
2023/12/20 04:29:55;;;;;;;41.47;24.30;;;;;;;5.44;71.83;94708.53;5085854;28;20194;-48
2023/12/20 04:32:22;;;;;;;43.53;25.90;;;;;;;5.42;72.05;94699.38;5087344;28;20200;-49
2023/12/20 04:34:48;;;;;;;36.90;24.13;;;;;;;5.41;71.71;94698.59;5091258;28;20225;-48
2023/12/20 04:37:15;;;;;;;47.10;26.90;;;;;;;5.40;71.91;94698.69;5090841;28;20189;-50
2023/12/20 04:39:43;;;;;;;40.50;24.93;;;;;;;5.33;71.92;94688.16;5091560;28;20182;-51
2023/12/20 04:42:10;;;;;;;41.80;26.07;;;;;;;5.39;71.97;94690.25;5091218;28;20182;-51
2023/12/20 04:44:37;;;;;;;43.30;24.47;;;;;;;5.38;71.93;94695.44;5086166;28;20197;-51
2023/12/20 04:47:04;;;;;;;44.60;25.23;;;;;;;5.37;72.16;94694.63;5070323;28;20551;-50
2023/12/20 04:49:30;;;;;;;41.00;25.63;;;;;;;5.37;72.18;94689.56;5085682;28;20181;-49
2023/12/20 04:51:57;;;;;;;37.33;24.90;;;;;;;5.36;71.66;94682.88;5091311;28;20269;-47
2023/12/20 04:54:24;;;;;;;41.23;25.50;;;;;;;5.36;71.49;94693.03;5090946;28;20201;-50
2023/12/20 04:56:52;;;;;;;45.60;27.50;;;;;;;5.29;71.86;94679.94;5091692;28;20193;-45
2023/12/20 04:59:19;;;;;;;45.13;27.03;;;;;;;5.33;71.91;94685.63;5090261;28;20189;-45
2023/12/20 05:01:45;;;;;;;44.67;27.20;;;;;;;5.31;71.75;94686.63;5090825;28;20197;-47
2023/12/20 05:04:12;;;;;;;42.30;25.97;;;;;;;5.11;71.82;94657.59;5090324;28;20254;-46
2023/12/20 05:06:39;;;;;;;48.80;27.23;;;;;;;5.09;71.79;94652.63;5090782;28;20189;-48
2023/12/20 05:09:06;;;;;;;43.40;28.13;;;;;;;5.04;71.71;94647.06;5072176;28;20909;-48
2023/12/20 05:11:33;;;;;;;48.20;28.27;;;;;;;5.23;71.65;94677.03;5070345;28;20309;-49
2023/12/20 05:14:01;;;;;;;41.30;26.80;;;;;;;5.20;71.64;94677.25;5069779;28;20639;-46
2023/12/20 05:16:27;;;;;;;40.53;26.67;;;;;;;5.17;71.56;94678.25;5070228;28;20194;-46
2023/12/20 05:18:54;;;;;;;48.63;28.67;;;;;;;5.17;71.69;94678.25;5072812;28;20728;-50
2023/12/20 05:21:21;;;;;;;45.03;27.77;;;;;;;5.14;71.62;94681.03;5069343;28;20190;-50
2023/12/20 05:23:48;;;;;;;41.30;27.03;;;;;;;5.13;71.42;94671.78;5069986;28;20279;-48
2023/12/20 05:26:14;;;;;;;43.43;26.60;;;;;;;5.09;71.66;94672.09;5071059;28;20236;-49
2023/12/20 05:28:41;;;;;;;43.83;26.57;;;;;;;5.09;71.83;94672.09;5069990;28;20183;-48
2023/12/20 05:31:09;;;;;;;46.43;27.87;;;;;;;5.08;71.68;94665.41;5075804;28;20198;-48
2023/12/20 05:33:36;;;;;;;46.67;26.83;;;;;;;5.01;71.70;94660.78;5070880;28;20194;-47
2023/12/20 05:36:03;;;;;;;41.90;27.30;;;;;;;5.04;71.84;94667.34;5070244;28;20229;-45
2023/12/20 05:38:30;;;;;;;42.57;25.93;;;;;;;5.01;71.86;94663.31;5069802;28;20639;-44
2023/12/20 05:40:57;;;;;;;47.03;27.37;;;;;;;5.02;71.70;94653.97;5070690;28;20197;-45
2023/12/20 05:43:24;;;;;;;47.13;28.17;;;;;;;5.00;71.87;94665.94;5072660;28;20193;-44
2023/12/20 05:45:51;;;;;;;46.67;27.47;;;;;;;4.99;71.78;94656.72;5078267;28;20277;-44
2023/12/20 05:48:19;;;;;;;46.37;28.33;;;;;;;4.98;71.92;94655.91;5089352;28;20182;-47
2023/12/20 05:50:46;;;;;;;51.13;27.20;;;;;;;5.00;71.81;94650.72;5089349;28;20182;-44
2023/12/20 05:53:12;;;;;;;44.63;28.40;;;;;;;5.00;71.94;94651.53;5089393;28;20210;-43
2023/12/20 05:55:39;;;;;;;45.23;28.17;;;;;;;4.99;71.82;94649.09;5082560;28;20214;-44
2023/12/20 05:58:06;;;;;;;49.17;28.53;;;;;;;5.02;71.77;94642.09;5069399;28;20293;-45
2023/12/20 06:00:33;;;;;;;51.93;29.33;;;;;;;5.05;71.81;94648.66;5070801;28;20239;-44
2023/12/20 06:03:00;;;;;;;46.37;27.90;;;;;;;5.04;71.84;94636.94;5069093;28;20263;-44
2023/12/20 06:05:28;;;;;;;47.63;29.03;;;;;;;5.10;71.96;94641.59;5069304;28;20186;-45
2023/12/20 06:07:56;;;;;;;50.03;29.60;;;;;;;5.13;71.73;94645.63;5069027;28;20201;-44
2023/12/20 06:10:23;;;;;;;50.37;27.70;;;;;;;5.15;71.84;94641.28;5069706;28;20182;-45
2023/12/20 06:12:51;;;;;;;50.77;30.20;;;;;;;5.17;71.71;94640.22;5069179;28;20244;-48
2023/12/20 06:15:17;;;;;;;50.00;29.87;;;;;;;5.21;71.80;94643.38;5069451;28;20220;-49
2023/12/20 06:17:44;;;;;;;55.97;31.83;;;;;;;5.22;71.80;94645.81;5068891;28;20247;-47
2023/12/20 06:20:11;;;;;;;54.13;29.43;;;;;;;5.03;71.78;94609.97;5069020;28;20190;-48
2023/12/20 06:22:40;;;;;;;52.53;29.93;;;;;;;5.28;71.69;94652.19;5069105;28;20652;-50
2023/12/20 06:25:07;;;;;;;52.30;29.20;;;;;;;5.32;71.65;94642.63;5069293;28;20217;-46
2023/12/20 06:27:33;;;;;;;49.03;30.80;;;;;;;5.33;71.44;94647.59;5069267;28;20218;-46
2023/12/20 06:30:00;;;;;;;58.10;31.00;;;;;;;5.41;71.44;94647.06;5069191;28;20675;-50
2023/12/20 06:32:28;;;;;;;57.67;32.23;;;;;;;5.43;71.55;94635.88;5069261;28;20263;-49
2023/12/20 06:34:55;;;;;;;51.57;29.37;;;;;;;5.51;71.53;94651.38;5073313;28;20206;-51
2023/12/20 06:37:22;;;;;;;53.90;30.53;;;;;;;5.57;71.38;94641.69;5073052;28;20179;-50
2023/12/20 06:39:50;;;;;;;59.97;32.80;;;;;;;5.62;71.26;94637.94;5078693;28;20194;-47
2023/12/20 06:42:17;;;;;;;49.70;30.27;;;;;;;5.66;71.35;94641.88;5081927;28;20198;-48
2023/12/20 06:44:44;;;;;;;56.47;30.20;;;;;;;5.70;71.28;94640.75;5072634;28;20198;-50
2023/12/20 06:47:10;;;;;;;53.90;30.77;;;;;;;5.75;71.24;94636.16;5086899;28;20197;-48
2023/12/20 06:49:38;;;;;;;54.70;31.33;;;;;;;5.81;71.13;94634.88;5093056;28;20182;-43
2023/12/20 06:52:05;;;;;;;67.03;33.60;;;;;;;5.87;71.11;94631.09;5092897;28;20663;-59
2023/12/20 06:54:31;;;;;;;65.13;34.00;;;;;;;5.89;70.99;94616.56;5092906;28;20212;-58
2023/12/20 06:56:59;;;;;;;57.87;32.80;;;;;;;5.95;70.98;94626.31;5078016;28;20198;-64
2023/12/20 06:59:27;;;;;;;55.30;32.90;;;;;;;5.98;70.87;94623.53;5076580;28;20193;-65
2023/12/20 07:01:53;;;;;;;60.13;32.53;;;;;;;6.01;70.87;94621.59;5074261;28;20190;-66
2023/12/20 07:04:21;;;;;;;70.93;35.37;;;;;;;6.06;70.70;94613.66;5076068;28;20187;-65
2023/12/20 07:06:51;;;;;;;61.47;34.77;;;;;;;6.11;70.46;94613.31;5088356;28;20229;-66
2023/12/20 07:09:17;;;;;;;60.03;34.37;;;;;;;6.17;70.46;94618.72;5092762;28;20208;-66
2023/12/20 07:11:45;;;;;;;60.73;35.03;;;;;;;6.23;70.47;94617.50;5090899;28;20221;-65
2023/12/20 07:14:13;;;;;;;62.60;35.63;;;;;;;5.93;70.64;94569.78;5092736;28;20694;-68
2023/12/20 07:16:40;;;;;;;65.13;34.77;;;;;;;6.36;70.39;94615.66;5081650;28;20253;-67
2023/12/20 07:19:07;;;;;;;66.47;36.90;;;;;;;6.45;70.27;94611.63;5072191;28;20379;-65
2023/12/20 07:21:33;;;;;;;68.63;35.97;;;;;;;6.51;70.07;94604.34;5076167;28;20174;-64
2023/12/20 07:24:00;;;;;;;63.60;33.13;;;;;;;6.59;70.03;94606.31;5072081;28;20189;-68
2023/12/20 07:26:27;;;;;;;62.03;33.97;;;;;;;6.70;69.87;94606.31;5070058;28;20615;-66
2023/12/20 07:28:54;;;;;;;64.67;36.10;;;;;;;6.75;69.71;94596.59;5052146;28;20645;-67
2023/12/20 07:31:23;;;;;;;71.77;36.40;;;;;;;6.77;69.67;94587.13;5051652;28;20702;-64
2023/12/20 07:33:51;;;;;;;64.03;37.33;;;;;;;6.80;69.55;94588.63;5052263;28;20187;-63
2023/12/20 07:36:17;;;;;;;68.37;38.53;;;;;;;6.94;69.39;94597.72;5067351;28;20760;-66
2023/12/20 07:38:44;;;;;;;73.67;39.27;;;;;;;7.01;69.41;94592.06;5071946;28;20667;-65
2023/12/20 07:41:11;;;;;;;76.80;37.97;;;;;;;7.09;69.19;94595.75;5071653;28;20240;-66
2023/12/20 07:43:38;;;;;;;74.33;40.13;;;;;;;7.14;69.22;94601.28;5076152;28;20277;-65
2023/12/20 07:46:09;;;;;;;76.33;39.10;;;;;;;7.05;69.03;94579.94;5080485;28;20193;-65
2023/12/20 07:48:37;;;;;;;77.73;39.77;;;;;;;7.06;69.28;94578.19;5090279;28;20200;-66
2023/12/20 07:51:05;;;;;;;71.17;40.17;;;;;;;7.16;69.17;94602.75;5091675;28;20251;-65
2023/12/20 07:53:32;;;;;;;79.40;40.23;;;;;;;7.18;69.13;94589.94;5091732;28;20562;-66
2023/12/20 07:55:59;;;;;;;79.27;41.70;;;;;;;7.12;69.13;94570.06;5086265;28;20217;-65
2023/12/20 07:58:25;;;;;;;78.80;40.93;;;;;;;7.25;68.91;94588.53;5090174;28;20254;-65
2023/12/20 08:00:52;;;;;;;78.10;42.07;;;;;;;7.28;69.02;94589.09;5089712;28;20177;-66
2023/12/20 08:03:19;;;;;;;75.20;41.83;;;;;;;7.27;68.74;94571.44;5091453;28;20212;-66
2023/12/20 08:05:47;;;;;;;83.87;43.67;;;;;;;7.34;68.87;94584.44;5092541;28;20193;-68
2023/12/20 08:08:14;;;;;;;82.47;44.70;;;;;;;7.33;68.89;94582.84;5091587;28;20189;-65
2023/12/20 08:10:40;;;;;;;85.13;43.13;;;;;;;7.40;68.69;94579.69;5094986;28;20225;-66
2023/12/20 08:13:08;;;;;;;86.07;43.47;;;;;;;7.34;68.66;94559.84;5095380;28;20192;-66
2023/12/20 08:15:35;;;;;;;81.27;42.80;;;;;;;7.62;68.24;94581.34;5090256;28;20212;-67
2023/12/20 08:18:01;;;;;;;80.27;44.03;;;;;;;7.78;67.95;94573.31;5091119;28;20223;-66
2023/12/20 08:20:28;;;;;;;78.33;41.70;;;;;;;7.92;67.91;94575.53;5091485;28;20193;-68
2023/12/20 08:22:56;;;;;;;80.27;42.33;;;;;;;8.07;67.57;94570.91;5090956;28;20197;-65
2023/12/20 08:25:23;;;;;;;81.40;44.20;;;;;;;8.27;67.28;94571.84;5091084;28;20190;-64
2023/12/20 08:27:50;;;;;;;85.13;44.43;;;;;;;8.48;66.80;94565.00;5073056;28;20183;-66
2023/12/20 08:30:20;;;;;;;81.27;43.20;;;;;;;8.56;66.83;94556.72;5070789;28;20252;-65
2023/12/20 08:32:47;;;;;;;84.87;44.37;;;;;;;8.72;66.75;94554.50;5071001;28;20201;-68
2023/12/20 08:35:14;;;;;;;79.90;42.20;;;;;;;8.71;66.96;94541.84;5070650;28;20217;-66
2023/12/20 08:37:41;;;;;;;85.57;43.57;;;;;;;8.82;66.68;94548.59;5070699;28;20194;-66
2023/12/20 08:40:10;;;;;;;83.33;42.90;;;;;;;8.84;66.91;94546.72;5070606;28;20186;-65
2023/12/20 08:42:37;;;;;;;87.57;44.30;;;;;;;8.89;66.77;94544.56;5070542;28;20218;-66
2023/12/20 08:45:04;;;;;;;82.53;43.40;;;;;;;8.92;66.80;94544.31;5077191;28;20185;-65
2023/12/20 08:47:31;;;;;;;76.00;42.37;;;;;;;8.92;66.91;94531.56;5089065;28;20247;-67
2023/12/20 08:49:59;;;;;;;78.53;46.40;;;;;;;8.89;66.71;94529.28;5090413;28;20649;-65
2023/12/20 08:52:27;;;;;;;82.40;43.97;;;;;;;8.90;66.73;94529.16;5090408;28;20193;-64
2023/12/20 08:54:54;;;;;;;92.33;46.80;;;;;;;8.96;66.75;94536.28;5090014;28;20288;-65
2023/12/20 08:57:23;;;;;;;85.97;46.70;;;;;;;8.99;66.52;94533.47;5090304;28;20233;-65
2023/12/20 08:59:50;;;;;;;83.30;45.67;;;;;;;9.04;66.35;94530.53;5085796;28;20190;-65
2023/12/20 09:02:17;;;;;;;89.30;45.07;;;;;;;9.08;66.60;94520.88;5084354;28;20190;-66
2023/12/20 09:04:44;;;;;;;84.83;44.83;;;;;;;9.09;66.51;94514.81;5083798;28;20186;-67
2023/12/20 09:07:22;;;;;;;83.20;45.50;;;;;;;9.13;66.42;94503.41;5090629;28;20280;-60
2023/12/20 09:15:39;;;;;;;87.77;45.77;;;;;;;9.30;66.30;94482.34;5616057;23;20279;-67
2023/12/20 09:23:18;;;;;;;85.83;46.90;;;;;;;9.46;65.87;94453.72;5489850;22;20227;-62
2023/12/20 09:25:45;;;;;;;96.20;50.70;;;;;;;9.23;65.79;94408.06;5023557;28;20287;-64
2023/12/20 09:28:11;;;;;;;94.17;50.03;;;;;;;9.55;65.81;94451.16;5029680;28;20271;-62
2023/12/20 09:30:40;;;;;;;92.90;48.60;;;;;;;9.59;65.71;94438.91;5018959;28;20184;-61
2023/12/20 09:33:07;;;;;;;89.60;48.93;;;;;;;9.61;65.70;94433.66;5009874;28;20645;-68
2023/12/20 09:46:02;;;;;;;91.00;51.30;;;;;;;9.57;65.15;94356.53;5184049;23;20739;-67
2023/12/20 09:48:29;;;;;;;93.60;48.77;;;;;;;10.02;65.18;94407.72;5010085;28;20302;-63
2023/12/20 09:50:56;;;;;;;99.20;49.13;;;;;;;10.04;65.15;94387.13;5009789;28;20200;-68
2023/12/20 09:53:29;;;;;;;93.43;51.60;;;;;;;10.17;64.90;94392.72;5009346;28;20215;-64
2023/12/20 09:55:59;;;;;;;99.73;51.27;;;;;;;10.29;64.44;94398.47;5004069;28;20217;-65
2023/12/20 09:58:25;;;;;;;106.43;54.90;;;;;;;10.37;64.55;94393.47;4989826;28;20417;-66
2023/12/20 10:00:56;;;;;;;97.33;51.60;;;;;;;10.36;64.45;94373.94;5000196;28;20192;-65
2023/12/20 10:03:26;;;;;;;92.50;49.90;;;;;;;10.58;64.06;94394.91;5002384;28;20181;-70
2023/12/20 10:05:57;;;;;;;97.97;51.73;;;;;;;10.68;64.08;94386.25;5000362;28;20387;-70
2023/12/20 10:08:25;;;;;;;99.83;51.33;;;;;;;10.76;64.11;94377.84;5008956;28;20676;-82
2023/12/20 10:10:52;;;;;;;97.60;53.07;;;;;;;10.95;63.72;94382.78;4995299;28;20554;-68
2023/12/20 10:13:19;;;;;;;95.07;53.37;;;;;;;10.93;63.43;94354.00;5009090;28;20204;-72
2023/12/20 10:15:46;;;;;;;94.00;52.20;;;;;;;11.22;63.37;94371.63;5008792;28;20231;-73
2023/12/20 10:18:14;;;;;;;97.67;51.87;;;;;;;11.11;62.93;94338.63;5009580;28;20208;-71
2023/12/20 10:20:42;;;;;;;96.80;52.27;;;;;;;11.31;63.23;94369.94;5001810;28;20193;-71
2023/12/20 10:23:09;;;;;;;99.03;51.17;;;;;;;11.29;63.24;94359.06;5005162;28;20541;-71
2023/12/20 10:25:35;;;;;;;95.50;53.50;;;;;;;11.09;63.49;94324.38;5009770;28;20659;-72
2023/12/20 10:28:13;;;;;;;95.57;52.87;;;;;;;11.18;63.50;94346.50;5007711;28;20246;-72
2023/12/20 10:30:41;;;;;;;91.70;50.97;;;;;;;11.22;63.26;94340.94;5006627;28;20219;-71
2023/12/20 10:33:08;;;;;;;101.97;54.83;;;;;;;11.29;62.99;94341.13;5008964;28;20211;-70
2023/12/20 10:35:37;;;;;;;92.90;52.97;;;;;;;11.17;62.81;94309.06;5009275;28;20199;-70
2023/12/20 10:38:06;;;;;;;93.50;52.03;;;;;;;11.43;62.86;94326.97;5008491;28;20702;-73
2023/12/20 10:40:36;;;;;;;101.37;53.50;;;;;;;11.46;62.63;94319.00;5008782;28;20279;-70
2023/12/20 10:43:03;;;;;;;101.53;53.53;;;;;;;11.45;62.63;94317.41;5008476;28;20188;-72
2023/12/20 10:45:31;;;;;;;98.57;53.70;;;;;;;11.52;62.58;94318.38;5008216;28;20259;-72
2023/12/20 10:47:59;;;;;;;95.40;52.60;;;;;;;11.52;62.32;94306.38;5004342;28;20657;-73
2023/12/20 10:50:27;;;;;;;95.97;51.50;;;;;;;11.43;62.39;94298.81;5007522;28;20646;-72
2023/12/20 10:52:56;;;;;;;99.77;54.27;;;;;;;11.56;62.50;94306.88;5006980;28;20204;-70
2023/12/20 10:55:23;;;;;;;92.93;53.43;;;;;;;11.58;62.10;94294.75;5005683;28;20185;-70
2023/12/20 10:57:52;;;;;;;97.47;54.73;;;;;;;11.64;62.18;94303.56;5006898;28;20228;-71
2023/12/20 11:00:20;;;;;;;96.73;55.00;;;;;;;11.71;61.90;94284.88;5006296;28;20254;-70
2023/12/20 11:02:47;;;;;;;89.33;51.90;;;;;;;11.50;61.90;94259.66;5008898;28;20211;-70
2023/12/20 11:05:25;;;;;;;87.43;51.80;;;;;;;11.69;62.16;94268.03;5008931;28;20618;-69
2023/12/20 11:07:59;;;;;;;95.97;53.50;;;;;;;11.69;62.02;94278.28;5023725;28;20199;-70
2023/12/20 11:10:30;;;;;;;100.50;54.37;;;;;;;11.69;61.86;94278.28;5011048;28;20196;-72
2023/12/20 11:13:04;;;;;;;96.70;53.27;;;;;;;11.70;62.05;94269.63;5007235;28;20208;-71
2023/12/20 11:15:31;;;;;;;96.23;53.40;;;;;;;11.68;61.86;94266.44;5008243;28;20200;-70
2023/12/20 11:17:59;;;;;;;97.07;54.97;;;;;;;11.72;61.86;94260.84;5007886;28;20725;-71
2023/12/20 11:20:37;;;;;;;92.27;53.80;;;;;;;11.72;61.84;94260.06;5011494;28;20752;-72
2023/12/20 11:23:06;;;;;;;102.27;55.30;;;;;;;11.65;61.67;94236.81;5009198;28;20192;-72
2023/12/20 11:25:49;;;;;;;91.17;52.83;;;;;;;11.72;61.72;94242.13;5009732;28;20566;-71
2023/12/20 11:28:17;;;;;;;87.53;50.50;;;;;;;11.73;61.68;94246.28;5011465;28;20720;-70
2023/12/20 11:30:48;;;;;;;92.87;54.33;;;;;;;11.74;61.64;94241.03;5011564;28;20588;-71
2023/12/20 11:33:16;;;;;;;99.20;56.03;;;;;;;11.76;61.56;94222.91;5011458;28;20224;-72
2023/12/20 11:35:43;;;;;;;100.93;54.27;;;;;;;11.76;61.42;94221.16;5011569;28;20697;-72
2023/12/20 11:38:11;;;;;;;98.63;54.37;;;;;;;11.62;61.48;94198.72;5011705;28;20224;-70
2023/12/20 11:40:38;;;;;;;102.47;56.00;;;;;;;11.77;61.43;94212.50;5011444;28;20689;-71
2023/12/20 11:43:06;;;;;;;96.77;55.40;;;;;;;11.78;61.24;94192.81;5011630;28;20196;-71
2023/12/20 11:45:32;;;;;;;96.13;55.10;;;;;;;11.63;61.19;94181.59;5011342;28;20334;-72
2023/12/20 11:47:59;;;;;;;105.27;56.73;;;;;;;11.79;61.24;94197.78;5011910;28;20195;-72